LavenderCAM.net
Leatherhead Weather
 
Leatherhead Weather
 
 





Aviation weather for

London Heathrow (EGLL) and London Gatwick (EGKK)



London Heathrow (EGLL) METAR / Surface Actual
London / Heathrow Airport, United Kingdom (EGLL) 51-29N 000-27W 0M
Oct 26, 2020 - 01:20 PM EDT / 2020.10.26 1720 UTC
Wind: from the W (260 degrees) at 12 MPH (10 KT):0
Visibility: greater than 7 mile(s):0
Temperature: 51 F (11 C)
Dew Point: 42 F (6 C)
Relative Humidity: 71%
Pressure (altimeter): 29.50 in. Hg (0999 hPa)
ob: EGLL 261720Z AUTO 26010KT 9999 NCD 11/06 Q0999
cycle: 17
London Heathrow (EGLL) TAF / Forecast
2020/10/26 12:09
TAF EGLL 261052Z 2612/2718 25012KT 9999 FEW030 
      BECMG 2708/2711 18012KT 8000 -RA BKN008 
      TEMPO 2708/2713 4000 RA PROB30 
      TEMPO 2710/2713 18015G25KT 
      BECMG 2713/2715 24015G25KT 9999 NSW SCT040 
      TEMPO 2715/2718 6000 SHRA


London Gatwick (EGKK) METAR / Surface Actual
London / Gatwick Airport, United Kingdom (EGKK) 51-09N 000-11W 0M
Oct 26, 2020 - 01:20 PM EDT / 2020.10.26 1720 UTC
Wind: from the SW (230 degrees) at 8 MPH (7 KT):0
Visibility: greater than 7 mile(s):0
Temperature: 51 F (11 C)
Dew Point: 42 F (6 C)
Relative Humidity: 71%
Pressure (altimeter): 29.50 in. Hg (0999 hPa)
ob: EGKK 261720Z 23007KT CAVOK 11/06 Q0999
cycle: 17
London Gatwick (EGKK) TAF / Forecast
2020/10/26 12:09
TAF EGKK 261058Z 2612/2718 25010KT 9999 FEW030 
      TEMPO 2612/2619 8000 SHRA PROB30 2701/2707 VRB03KT 4000 BR 
      BECMG 2708/2711 18012KT 8000 -RA BKN012 
      TEMPO 2708/2714 4000 RA BKN008 
      TEMPO 2710/2714 22018G28KT 
      BECMG 2714/2717 24009KT 9999 NSW FEW018 SCT035 PROB30 
      TEMPO 2714/2718 23015G25KT 7000 SHRA